sensor_id;sensor_type;location;lat;lon;timestamp;temperature;humidity
3602;DHT22;1815;50.950;6.920;2024-03-08T00:00:09;6.40;93.40
3602;DHT22;1815;50.950;6.920;2024-03-08T00:02:48;6.40;93.60
3602;DHT22;1815;50.950;6.920;2024-03-08T00:05:16;6.30;93.80
3602;DHT22;1815;50.950;6.920;2024-03-08T00:07:43;6.30;93.70
3602;DHT22;1815;50.950;6.920;2024-03-08T00:10:11;6.30;93.90
3602;DHT22;1815;50.950;6.920;2024-03-08T00:12:44;6.30;94.00
3602;DHT22;1815;50.950;6.920;2024-03-08T00:15:10;6.20;94.00
3602;DHT22;1815;50.950;6.920;2024-03-08T00:17:37;6.20;94.00
3602;DHT22;1815;50.950;6.920;2024-03-08T00:20:03;6.20;94.10
3602;DHT22;1815;50.950;6.920;2024-03-08T00:22:34;6.20;94.20
3602;DHT22;1815;50.950;6.920;2024-03-08T00:25:00;6.20;94.30
3602;DHT22;1815;50.950;6.920;2024-03-08T00:27:27;6.20;94.30
3602;DHT22;1815;50.950;6.920;2024-03-08T00:29:52;6.20;94.40
3602;DHT22;1815;50.950;6.920;2024-03-08T00:32:18;6.10;94.50
3602;DHT22;1815;50.950;6.920;2024-03-08T00:34:44;6.10;94.40
3602;DHT22;1815;50.950;6.920;2024-03-08T00:37:09;6.10;94.60
3602;DHT22;1815;50.950;6.920;2024-03-08T00:39:35;6.10;94.50
3602;DHT22;1815;50.950;6.920;2024-03-08T00:42:01;6.10;94.90
3602;DHT22;1815;50.950;6.920;2024-03-08T00:44:27;6.10;94.80
3602;DHT22;1815;50.950;6.920;2024-03-08T00:46:52;6.00;94.90
3602;DHT22;1815;50.950;6.920;2024-03-08T00:49:18;6.00;94.90
3602;DHT22;1815;50.950;6.920;2024-03-08T00:51:44;6.00;95.10
3602;DHT22;1815;50.950;6.920;2024-03-08T00:54:09;6.00;95.00
3602;DHT22;1815;50.950;6.920;2024-03-08T00:56:35;6.00;95.00
3602;DHT22;1815;50.950;6.920;2024-03-08T00:59:01;6.00;95.20
3602;DHT22;1815;50.950;6.920;2024-03-08T01:01:28;5.90;95.30
3602;DHT22;1815;50.950;6.920;2024-03-08T01:03:54;5.90;95.40
3602;DHT22;1815;50.950;6.920;2024-03-08T01:06:19;5.90;95.50
3602;DHT22;1815;50.950;6.920;2024-03-08T01:08:45;5.90;95.60
3602;DHT22;1815;50.950;6.920;2024-03-08T01:11:13;5.80;95.50
3602;DHT22;1815;50.950;6.920;2024-03-08T01:13:39;5.80;95.80
3602;DHT22;1815;50.950;6.920;2024-03-08T01:16:05;5.80;95.70
3602;DHT22;1815;50.950;6.920;2024-03-08T01:18:31;5.80;95.70
3602;DHT22;1815;50.950;6.920;2024-03-08T01:20:57;5.80;95.80
3602;DHT22;1815;50.950;6.920;2024-03-08T01:23:23;5.80;95.90
3602;DHT22;1815;50.950;6.920;2024-03-08T01:25:49;5.80;96.10
3602;DHT22;1815;50.950;6.920;2024-03-08T01:28:23;5.70;95.90
3602;DHT22;1815;50.950;6.920;2024-03-08T01:30:50;5.70;96.10
3602;DHT22;1815;50.950;6.920;2024-03-08T01:33:24;5.70;96.20
3602;DHT22;1815;50.950;6.920;2024-03-08T01:35:51;5.60;96.90
3602;DHT22;1815;50.950;6.920;2024-03-08T01:38:18;5.70;96.60
3602;DHT22;1815;50.950;6.920;2024-03-08T01:40:44;5.60;96.60
3602;DHT22;1815;50.950;6.920;2024-03-08T01:43:36;5.70;96.70
3602;DHT22;1815;50.950;6.920;2024-03-08T01:46:02;5.50;97.80
3602;DHT22;1815;50.950;6.920;2024-03-08T01:48:29;5.60;97.20
3602;DHT22;1815;50.950;6.920;2024-03-08T01:50:56;5.60;97.30
3602;DHT22;1815;50.950;6.920;2024-03-08T01:53:24;5.60;97.20
3602;DHT22;1815;50.950;6.920;2024-03-08T01:55:53;5.60;97.20
3602;DHT22;1815;50.950;6.920;2024-03-08T01:58:20;5.60;97.30
3602;DHT22;1815;50.950;6.920;2024-03-08T02:00:48;5.50;97.40
3602;DHT22;1815;50.950;6.920;2024-03-08T02:03:17;5.50;97.40
3602;DHT22;1815;50.950;6.920;2024-03-08T02:05:43;5.50;97.30
3602;DHT22;1815;50.950;6.920;2024-03-08T02:08:09;5.50;97.40
3602;DHT22;1815;50.950;6.920;2024-03-08T02:10:44;5.50;97.50
3602;DHT22;1815;50.950;6.920;2024-03-08T02:13:10;5.50;97.60
3602;DHT22;1815;50.950;6.920;2024-03-08T02:15:56;5.50;97.60
3602;DHT22;1815;50.950;6.920;2024-03-08T02:18:23;5.50;97.80
3602;DHT22;1815;50.950;6.920;2024-03-08T02:21:03;5.50;97.70
3602;DHT22;1815;50.950;6.920;2024-03-08T02:23:28;5.40;97.80
3602;DHT22;1815;50.950;6.920;2024-03-08T02:25:56;5.40;98.10
3602;DHT22;1815;50.950;6.920;2024-03-08T02:28:23;5.40;97.90
3602;DHT22;1815;50.950;6.920;2024-03-08T02:30:50;5.40;98.10
3602;DHT22;1815;50.950;6.920;2024-03-08T02:33:17;5.40;98.00
3602;DHT22;1815;50.950;6.920;2024-03-08T02:35:47;5.40;98.20
3602;DHT22;1815;50.950;6.920;2024-03-08T02:38:21;5.30;98.60
3602;DHT22;1815;50.950;6.920;2024-03-08T02:40:49;5.30;98.40
3602;DHT22;1815;50.950;6.920;2024-03-08T02:43:18;5.30;98.40
3602;DHT22;1815;50.950;6.920;2024-03-08T02:45:45;5.30;98.40
3602;DHT22;1815;50.950;6.920;2024-03-08T02:48:11;5.30;98.50
3602;DHT22;1815;50.950;6.920;2024-03-08T02:50:38;5.30;98.60
3602;DHT22;1815;50.950;6.920;2024-03-08T02:53:06;5.30;98.70
3602;DHT22;1815;50.950;6.920;2024-03-08T02:55:32;5.30;98.80
3602;DHT22;1815;50.950;6.920;2024-03-08T02:58:02;5.30;98.80
3602;DHT22;1815;50.950;6.920;2024-03-08T03:00:29;5.30;98.90
3602;DHT22;1815;50.950;6.920;2024-03-08T03:02:57;5.30;98.90
3602;DHT22;1815;50.950;6.920;2024-03-08T03:05:25;5.30;99.00
3602;DHT22;1815;50.950;6.920;2024-03-08T03:07:51;5.30;99.20
3602;DHT22;1815;50.950;6.920;2024-03-08T03:10:18;5.30;99.10
3602;DHT22;1815;50.950;6.920;2024-03-08T03:12:44;5.30;99.20
3602;DHT22;1815;50.950;6.920;2024-03-08T03:15:11;5.30;99.30
3602;DHT22;1815;50.950;6.920;2024-03-08T03:17:38;5.20;99.20
3602;DHT22;1815;50.950;6.920;2024-03-08T03:20:07;5.30;99.30
3602;DHT22;1815;50.950;6.920;2024-03-08T03:22:38;5.20;99.40
3602;DHT22;1815;50.950;6.920;2024-03-08T03:25:04;5.20;99.40
3602;DHT22;1815;50.950;6.920;2024-03-08T03:27:32;5.20;99.60
3602;DHT22;1815;50.950;6.920;2024-03-08T03:29:58;5.20;99.50
3602;DHT22;1815;50.950;6.920;2024-03-08T03:32:24;5.20;99.60
3602;DHT22;1815;50.950;6.920;2024-03-08T03:34:50;5.20;99.60
3602;DHT22;1815;50.950;6.920;2024-03-08T03:37:21;5.20;99.90
3602;DHT22;1815;50.950;6.920;2024-03-08T03:39:47;5.20;99.80
3602;DHT22;1815;50.950;6.920;2024-03-08T03:42:18;5.20;99.90
3602;DHT22;1815;50.950;6.920;2024-03-08T03:44:45;5.20;99.80
3602;DHT22;1815;50.950;6.920;2024-03-08T03:47:11;5.20;99.90
3602;DHT22;1815;50.950;6.920;2024-03-08T03:49:37;5.10;99.90
3602;DHT22;1815;50.950;6.920;2024-03-08T03:52:02;5.10;99.90
3602;DHT22;1815;50.950;6.920;2024-03-08T03:54:30;5.10;99.90
3602;DHT22;1815;50.950;6.920;2024-03-08T03:56:56;5.10;99.90
3602;DHT22;1815;50.950;6.920;2024-03-08T03:59:22;5.10;99.90
3602;DHT22;1815;50.950;6.920;2024-03-08T04:01:47;5.10;99.90
3602;DHT22;1815;50.950;6.920;2024-03-08T04:04:15;5.10;99.90
3602;DHT22;1815;50.950;6.920;2024-03-08T04:06:41;5.10;99.90
3602;DHT22;1815;50.950;6.920;2024-03-08T04:09:07;5.00;99.90
3602;DHT22;1815;50.950;6.920;2024-03-08T04:11:33;5.10;99.90
3602;DHT22;1815;50.950;6.920;2024-03-08T04:13:59;5.10;99.90
3602;DHT22;1815;50.950;6.920;2024-03-08T04:16:25;5.10;99.90
3602;DHT22;1815;50.950;6.920;2024-03-08T04:18:52;5.10;99.90
3602;DHT22;1815;50.950;6.920;2024-03-08T04:21:17;5.00;99.90
3602;DHT22;1815;50.950;6.920;2024-03-08T04:23:45;5.00;99.90
3602;DHT22;1815;50.950;6.920;2024-03-08T04:26:11;5.00;99.90
3602;DHT22;1815;50.950;6.920;2024-03-08T04:28:37;5.00;99.90
3602;DHT22;1815;50.950;6.920;2024-03-08T04:31:06;5.00;99.90
3602;DHT22;1815;50.950;6.920;2024-03-08T04:33:32;5.00;99.90
3602;DHT22;1815;50.950;6.920;2024-03-08T04:35:58;5.00;99.90
3602;DHT22;1815;50.950;6.920;2024-03-08T04:38:23;5.00;99.90
3602;DHT22;1815;50.950;6.920;2024-03-08T04:40:50;5.00;99.90
3602;DHT22;1815;50.950;6.920;2024-03-08T04:43:16;5.10;99.90
3602;DHT22;1815;50.950;6.920;2024-03-08T04:45:44;5.00;99.90
3602;DHT22;1815;50.950;6.920;2024-03-08T04:48:10;5.00;99.90
3602;DHT22;1815;50.950;6.920;2024-03-08T04:50:37;5.00;99.90
3602;DHT22;1815;50.950;6.920;2024-03-08T04:53:03;5.00;99.90
3602;DHT22;1815;50.950;6.920;2024-03-08T04:55:31;5.00;99.90
3602;DHT22;1815;50.950;6.920;2024-03-08T04:57:57;5.00;99.90
3602;DHT22;1815;50.950;6.920;2024-03-08T05:00:22;5.00;99.90
3602;DHT22;1815;50.950;6.920;2024-03-08T05:02:48;5.00;99.90
3602;DHT22;1815;50.950;6.920;2024-03-08T05:05:14;5.00;99.90
3602;DHT22;1815;50.950;6.920;2024-03-08T05:07:40;5.00;99.90
3602;DHT22;1815;50.950;6.920;2024-03-08T05:10:07;5.00;99.90
3602;DHT22;1815;50.950;6.920;2024-03-08T05:12:36;5.00;99.90
3602;DHT22;1815;50.950;6.920;2024-03-08T05:15:01;4.90;99.90
3602;DHT22;1815;50.950;6.920;2024-03-08T05:17:27;4.90;99.90
3602;DHT22;1815;50.950;6.920;2024-03-08T05:19:53;4.90;99.90
3602;DHT22;1815;50.950;6.920;2024-03-08T05:22:19;4.90;99.90
3602;DHT22;1815;50.950;6.920;2024-03-08T05:24:44;4.90;99.90
3602;DHT22;1815;50.950;6.920;2024-03-08T05:27:10;4.90;99.90
3602;DHT22;1815;50.950;6.920;2024-03-08T05:29:36;4.90;99.90
3602;DHT22;1815;50.950;6.920;2024-03-08T05:32:03;4.90;99.90
3602;DHT22;1815;50.950;6.920;2024-03-08T05:34:29;4.90;99.90
3602;DHT22;1815;50.950;6.920;2024-03-08T05:36:55;4.80;99.90
3602;DHT22;1815;50.950;6.920;2024-03-08T05:39:24;4.80;99.90
3602;DHT22;1815;50.950;6.920;2024-03-08T05:41:50;4.80;99.90
3602;DHT22;1815;50.950;6.920;2024-03-08T05:44:16;4.90;99.90
3602;DHT22;1815;50.950;6.920;2024-03-08T05:46:45;4.90;99.90
3602;DHT22;1815;50.950;6.920;2024-03-08T05:49:12;4.80;99.90
3602;DHT22;1815;50.950;6.920;2024-03-08T05:51:39;4.80;99.90
3602;DHT22;1815;50.950;6.920;2024-03-08T05:54:07;4.90;99.90
3602;DHT22;1815;50.950;6.920;2024-03-08T05:56:36;4.80;99.90
3602;DHT22;1815;50.950;6.920;2024-03-08T05:59:02;4.80;99.90
3602;DHT22;1815;50.950;6.920;2024-03-08T06:01:28;4.80;99.90
3602;DHT22;1815;50.950;6.920;2024-03-08T06:03:54;4.80;99.90
3602;DHT22;1815;50.950;6.920;2024-03-08T06:06:22;4.80;99.90
3602;DHT22;1815;50.950;6.920;2024-03-08T06:08:48;4.80;99.90
3602;DHT22;1815;50.950;6.920;2024-03-08T06:11:15;4.80;99.90
3602;DHT22;1815;50.950;6.920;2024-03-08T06:13:43;4.80;99.90
3602;DHT22;1815;50.950;6.920;2024-03-08T06:16:09;4.80;99.90
3602;DHT22;1815;50.950;6.920;2024-03-08T06:18:35;4.90;99.90
3602;DHT22;1815;50.950;6.920;2024-03-08T06:21:05;4.90;99.90
3602;DHT22;1815;50.950;6.920;2024-03-08T06:23:34;4.90;99.90
3602;DHT22;1815;50.950;6.920;2024-03-08T06:26:07;4.90;99.90
3602;DHT22;1815;50.950;6.920;2024-03-08T06:28:33;4.90;99.90
3602;DHT22;1815;50.950;6.920;2024-03-08T06:31:00;4.90;99.90
3602;DHT22;1815;50.950;6.920;2024-03-08T06:33:26;4.90;99.90
3602;DHT22;1815;50.950;6.920;2024-03-08T06:35:53;5.00;99.90
3602;DHT22;1815;50.950;6.920;2024-03-08T06:38:20;5.00;99.90
3602;DHT22;1815;50.950;6.920;2024-03-08T06:40:48;5.10;99.90
3602;DHT22;1815;50.950;6.920;2024-03-08T06:43:14;5.10;99.90
3602;DHT22;1815;50.950;6.920;2024-03-08T06:45:42;5.10;99.90
3602;DHT22;1815;50.950;6.920;2024-03-08T06:48:17;5.10;99.90
3602;DHT22;1815;50.950;6.920;2024-03-08T06:50:47;5.20;99.90
3602;DHT22;1815;50.950;6.920;2024-03-08T06:53:13;5.20;99.90
3602;DHT22;1815;50.950;6.920;2024-03-08T06:55:42;5.30;99.90
3602;DHT22;1815;50.950;6.920;2024-03-08T06:58:10;5.30;99.90
3602;DHT22;1815;50.950;6.920;2024-03-08T07:00:37;5.40;99.90
3602;DHT22;1815;50.950;6.920;2024-03-08T07:03:03;5.40;99.90
3602;DHT22;1815;50.950;6.920;2024-03-08T07:05:29;5.50;99.90
3602;DHT22;1815;50.950;6.920;2024-03-08T07:08:05;5.50;99.90
3602;DHT22;1815;50.950;6.920;2024-03-08T07:10:32;5.60;99.90
3602;DHT22;1815;50.950;6.920;2024-03-08T07:12:57;5.60;99.90
3602;DHT22;1815;50.950;6.920;2024-03-08T07:15:23;5.70;99.90
3602;DHT22;1815;50.950;6.920;2024-03-08T07:17:49;5.80;99.90
3602;DHT22;1815;50.950;6.920;2024-03-08T07:20:18;5.80;99.90
3602;DHT22;1815;50.950;6.920;2024-03-08T07:22:48;5.80;99.90
3602;DHT22;1815;50.950;6.920;2024-03-08T07:25:16;5.90;99.90
3602;DHT22;1815;50.950;6.920;2024-03-08T07:27:53;5.90;99.90
3602;DHT22;1815;50.950;6.920;2024-03-08T07:30:24;6.00;99.90
3602;DHT22;1815;50.950;6.920;2024-03-08T07:33:08;6.10;99.90
3602;DHT22;1815;50.950;6.920;2024-03-08T07:35:40;6.20;99.90
3602;DHT22;1815;50.950;6.920;2024-03-08T07:38:07;6.30;99.90
3602;DHT22;1815;50.950;6.920;2024-03-08T07:40:40;6.40;99.90
3602;DHT22;1815;50.950;6.920;2024-03-08T07:43:12;6.40;99.90
3602;DHT22;1815;50.950;6.920;2024-03-08T07:45:38;6.50;99.90
3602;DHT22;1815;50.950;6.920;2024-03-08T07:48:04;6.60;99.90
3602;DHT22;1815;50.950;6.920;2024-03-08T07:50:39;6.70;99.90
3602;DHT22;1815;50.950;6.920;2024-03-08T07:53:06;6.80;99.90
3602;DHT22;1815;50.950;6.920;2024-03-08T07:55:33;6.90;99.90
3602;DHT22;1815;50.950;6.920;2024-03-08T07:57:59;7.00;99.90
3602;DHT22;1815;50.950;6.920;2024-03-08T08:00:25;7.10;99.90
3602;DHT22;1815;50.950;6.920;2024-03-08T08:02:53;7.20;99.90
3602;DHT22;1815;50.950;6.920;2024-03-08T08:05:19;7.40;99.90
3602;DHT22;1815;50.950;6.920;2024-03-08T08:07:45;7.80;99.90
3602;DHT22;1815;50.950;6.920;2024-03-08T08:10:12;8.30;99.90
3602;DHT22;1815;50.950;6.920;2024-03-08T08:12:47;8.90;99.90
3602;DHT22;1815;50.950;6.920;2024-03-08T08:15:14;9.60;99.90
3602;DHT22;1815;50.950;6.920;2024-03-08T08:17:44;10.40;99.90
3602;DHT22;1815;50.950;6.920;2024-03-08T08:20:11;11.10;99.90
3602;DHT22;1815;50.950;6.920;2024-03-08T08:22:38;11.60;99.90
3602;DHT22;1815;50.950;6.920;2024-03-08T08:25:06;12.40;99.90
3602;DHT22;1815;50.950;6.920;2024-03-08T08:27:31;13.20;99.90
3602;DHT22;1815;50.950;6.920;2024-03-08T08:29:57;14.10;99.90
3602;DHT22;1815;50.950;6.920;2024-03-08T08:32:23;14.50;99.20
3602;DHT22;1815;50.950;6.920;2024-03-08T08:34:48;14.90;93.30
3602;DHT22;1815;50.950;6.920;2024-03-08T08:37:14;15.10;94.60
3602;DHT22;1815;50.950;6.920;2024-03-08T08:39:42;15.40;92.80
3602;DHT22;1815;50.950;6.920;2024-03-08T08:42:07;15.80;94.10
3602;DHT22;1815;50.950;6.920;2024-03-08T08:44:35;16.20;90.00
3602;DHT22;1815;50.950;6.920;2024-03-08T08:47:01;16.10;83.40
3602;DHT22;1815;50.950;6.920;2024-03-08T08:49:29;16.10;82.80
3602;DHT22;1815;50.950;6.920;2024-03-08T08:51:56;16.30;87.40
3602;DHT22;1815;50.950;6.920;2024-03-08T08:54:24;16.60;85.00
3602;DHT22;1815;50.950;6.920;2024-03-08T08:56:50;16.60;82.10
3602;DHT22;1815;50.950;6.920;2024-03-08T08:59:16;16.60;84.40
3602;DHT22;1815;50.950;6.920;2024-03-08T09:01:47;16.60;80.50
3602;DHT22;1815;50.950;6.920;2024-03-08T09:04:13;16.80;71.30
3602;DHT22;1815;50.950;6.920;2024-03-08T09:06:42;17.20;75.10
3602;DHT22;1815;50.950;6.920;2024-03-08T09:09:08;17.30;72.10
3602;DHT22;1815;50.950;6.920;2024-03-08T09:11:39;17.60;72.20
3602;DHT22;1815;50.950;6.920;2024-03-08T09:14:07;17.70;69.30
3602;DHT22;1815;50.950;6.920;2024-03-08T09:16:33;17.80;72.50
3602;DHT22;1815;50.950;6.920;2024-03-08T09:18:59;18.40;68.40
3602;DHT22;1815;50.950;6.920;2024-03-08T09:21:25;18.20;63.90
3602;DHT22;1815;50.950;6.920;2024-03-08T09:23:53;18.10;65.90
3602;DHT22;1815;50.950;6.920;2024-03-08T09:26:19;18.20;62.90
3602;DHT22;1815;50.950;6.920;2024-03-08T09:28:45;18.10;62.50
3602;DHT22;1815;50.950;6.920;2024-03-08T09:31:11;18.30;64.40
3602;DHT22;1815;50.950;6.920;2024-03-08T09:33:37;18.50;63.70
3602;DHT22;1815;50.950;6.920;2024-03-08T09:36:05;18.60;64.10
3602;DHT22;1815;50.950;6.920;2024-03-08T09:38:33;18.80;65.60
3602;DHT22;1815;50.950;6.920;2024-03-08T09:41:00;19.40;66.30
3602;DHT22;1815;50.950;6.920;2024-03-08T09:43:28;19.50;60.30
3602;DHT22;1815;50.950;6.920;2024-03-08T09:45:55;19.50;58.80
3602;DHT22;1815;50.950;6.920;2024-03-08T09:48:22;19.40;57.90
3602;DHT22;1815;50.950;6.920;2024-03-08T09:50:48;19.50;61.20
3602;DHT22;1815;50.950;6.920;2024-03-08T09:53:15;19.90;62.70
3602;DHT22;1815;50.950;6.920;2024-03-08T09:55:41;20.30;61.60
3602;DHT22;1815;50.950;6.920;2024-03-08T09:58:11;20.50;60.20
3602;DHT22;1815;50.950;6.920;2024-03-08T10:00:47;20.70;56.40
3602;DHT22;1815;50.950;6.920;2024-03-08T10:03:13;20.60;57.10
3602;DHT22;1815;50.950;6.920;2024-03-08T10:05:41;20.60;57.70
3602;DHT22;1815;50.950;6.920;2024-03-08T10:08:07;20.70;56.80
3602;DHT22;1815;50.950;6.920;2024-03-08T10:10:37;20.50;51.50
3602;DHT22;1815;50.950;6.920;2024-03-08T10:13:09;20.30;52.70
3602;DHT22;1815;50.950;6.920;2024-03-08T10:15:36;20.10;52.60
3602;DHT22;1815;50.950;6.920;2024-03-08T10:18:02;20.20;55.50
3602;DHT22;1815;50.950;6.920;2024-03-08T10:20:30;20.60;57.30
3602;DHT22;1815;50.950;6.920;2024-03-08T10:23:02;20.70;54.40
3602;DHT22;1815;50.950;6.920;2024-03-08T10:25:30;20.80;51.40
3602;DHT22;1815;50.950;6.920;2024-03-08T10:27:56;20.30;50.40
3602;DHT22;1815;50.950;6.920;2024-03-08T10:30:22;20.30;51.40
3602;DHT22;1815;50.950;6.920;2024-03-08T10:32:48;20.10;51.30
3602;DHT22;1815;50.950;6.920;2024-03-08T10:35:14;20.00;51.80
3602;DHT22;1815;50.950;6.920;2024-03-08T10:37:47;20.00;52.60
3602;DHT22;1815;50.950;6.920;2024-03-08T10:40:20;20.00;50.60
3602;DHT22;1815;50.950;6.920;2024-03-08T10:42:52;19.70;50.60
3602;DHT22;1815;50.950;6.920;2024-03-08T10:48:29;19.00;47.10
3602;DHT22;1815;50.950;6.920;2024-03-08T10:51:05;19.00;48.80
3602;DHT22;1815;50.950;6.920;2024-03-08T10:53:30;18.40;48.10
3602;DHT22;1815;50.950;6.920;2024-03-08T10:55:57;18.30;50.50
3602;DHT22;1815;50.950;6.920;2024-03-08T10:58:24;18.40;50.80
3602;DHT22;1815;50.950;6.920;2024-03-08T11:00:54;18.50;50.60
3602;DHT22;1815;50.950;6.920;2024-03-08T11:08:41;18.90;50.00
3602;DHT22;1815;50.950;6.920;2024-03-08T11:11:24;18.90;48.80
3602;DHT22;1815;50.950;6.920;2024-03-08T11:13:53;18.60;47.40
3602;DHT22;1815;50.950;6.920;2024-03-08T11:16:39;18.10;46.00
3602;DHT22;1815;50.950;6.920;2024-03-08T11:19:07;17.90;48.40
3602;DHT22;1815;50.950;6.920;2024-03-08T11:21:57;17.60;47.10
3602;DHT22;1815;50.950;6.920;2024-03-08T11:24:23;17.50;48.60
3602;DHT22;1815;50.950;6.920;2024-03-08T11:26:49;17.80;48.10
3602;DHT22;1815;50.950;6.920;2024-03-08T11:32:11;17.60;49.20
3602;DHT22;1815;50.950;6.920;2024-03-08T11:34:46;17.50;48.70
3602;DHT22;1815;50.950;6.920;2024-03-08T11:37:19;17.20;48.50
3602;DHT22;1815;50.950;6.920;2024-03-08T11:39:54;17.30;48.50
3602;DHT22;1815;50.950;6.920;2024-03-08T11:42:25;17.00;47.00
3602;DHT22;1815;50.950;6.920;2024-03-08T11:44:53;16.90;47.80
3602;DHT22;1815;50.950;6.920;2024-03-08T11:47:20;16.80;48.70
3602;DHT22;1815;50.950;6.920;2024-03-08T11:49:46;16.80;49.30
3602;DHT22;1815;50.950;6.920;2024-03-08T11:52:15;17.00;49.90
3602;DHT22;1815;50.950;6.920;2024-03-08T11:54:52;17.20;49.40
3602;DHT22;1815;50.950;6.920;2024-03-08T11:57:20;17.30;48.60
3602;DHT22;1815;50.950;6.920;2024-03-08T11:59:54;17.00;48.80
3602;DHT22;1815;50.950;6.920;2024-03-08T12:02:22;16.90;49.60
3602;DHT22;1815;50.950;6.920;2024-03-08T12:04:59;17.00;49.30
3602;DHT22;1815;50.950;6.920;2024-03-08T12:07:26;16.70;48.00
3602;DHT22;1815;50.950;6.920;2024-03-08T12:10:15;16.40;48.70
3602;DHT22;1815;50.950;6.920;2024-03-08T12:12:49;16.50;49.70
3602;DHT22;1815;50.950;6.920;2024-03-08T12:15:17;16.80;50.10
3602;DHT22;1815;50.950;6.920;2024-03-08T12:17:45;16.80;50.30
3602;DHT22;1815;50.950;6.920;2024-03-08T12:20:20;16.90;48.80
3602;DHT22;1815;50.950;6.920;2024-03-08T12:22:50;16.90;49.00
3602;DHT22;1815;50.950;6.920;2024-03-08T12:25:18;16.60;48.60
3602;DHT22;1815;50.950;6.920;2024-03-08T12:27:46;16.50;49.10
3602;DHT22;1815;50.950;6.920;2024-03-08T12:30:32;16.50;49.20
3602;DHT22;1815;50.950;6.920;2024-03-08T12:33:00;16.60;49.40
3602;DHT22;1815;50.950;6.920;2024-03-08T12:35:28;16.70;49.40
3602;DHT22;1815;50.950;6.920;2024-03-08T12:37:56;16.80;49.50
3602;DHT22;1815;50.950;6.920;2024-03-08T12:40:29;16.80;48.00
3602;DHT22;1815;50.950;6.920;2024-03-08T12:43:00;16.50;47.80
3602;DHT22;1815;50.950;6.920;2024-03-08T12:45:26;16.50;49.40
3602;DHT22;1815;50.950;6.920;2024-03-08T12:47:53;16.40;49.90
3602;DHT22;1815;50.950;6.920;2024-03-08T12:50:22;16.40;49.30
3602;DHT22;1815;50.950;6.920;2024-03-08T12:52:50;16.20;47.60
3602;DHT22;1815;50.950;6.920;2024-03-08T12:55:18;15.90;48.00
3602;DHT22;1815;50.950;6.920;2024-03-08T12:57:44;15.90;48.60
3602;DHT22;1815;50.950;6.920;2024-03-08T13:00:12;15.80;48.80
3602;DHT22;1815;50.950;6.920;2024-03-08T13:02:51;15.60;48.00
3602;DHT22;1815;50.950;6.920;2024-03-08T13:05:19;15.50;48.80
3602;DHT22;1815;50.950;6.920;2024-03-08T13:07:45;15.50;48.70
3602;DHT22;1815;50.950;6.920;2024-03-08T13:10:14;15.40;49.20
3602;DHT22;1815;50.950;6.920;2024-03-08T13:12:43;15.40;49.50
3602;DHT22;1815;50.950;6.920;2024-03-08T13:15:10;15.20;49.30
3602;DHT22;1815;50.950;6.920;2024-03-08T13:17:49;15.00;49.30
3602;DHT22;1815;50.950;6.920;2024-03-08T13:20:15;14.80;49.30
3602;DHT22;1815;50.950;6.920;2024-03-08T13:22:45;14.60;49.40
3602;DHT22;1815;50.950;6.920;2024-03-08T13:25:12;14.40;49.80
3602;DHT22;1815;50.950;6.920;2024-03-08T13:27:41;14.40;49.90
3602;DHT22;1815;50.950;6.920;2024-03-08T13:30:11;14.30;50.30
3602;DHT22;1815;50.950;6.920;2024-03-08T13:32:42;14.20;50.50
3602;DHT22;1815;50.950;6.920;2024-03-08T13:35:11;14.10;50.70
3602;DHT22;1815;50.950;6.920;2024-03-08T13:37:43;14.00;50.70
3602;DHT22;1815;50.950;6.920;2024-03-08T13:40:09;13.80;51.20
3602;DHT22;1815;50.950;6.920;2024-03-08T13:42:42;13.80;51.20
3602;DHT22;1815;50.950;6.920;2024-03-08T13:45:11;13.80;51.40
3602;DHT22;1815;50.950;6.920;2024-03-08T13:47:38;13.70;51.50
3602;DHT22;1815;50.950;6.920;2024-03-08T13:50:06;13.70;51.60
3602;DHT22;1815;50.950;6.920;2024-03-08T13:52:33;13.70;51.70
3602;DHT22;1815;50.950;6.920;2024-03-08T13:55:01;13.70;51.70
3602;DHT22;1815;50.950;6.920;2024-03-08T13:57:26;13.70;51.90
3602;DHT22;1815;50.950;6.920;2024-03-08T13:59:55;13.70;51.70
3602;DHT22;1815;50.950;6.920;2024-03-08T14:02:21;13.70;51.80
3602;DHT22;1815;50.950;6.920;2024-03-08T14:04:48;13.70;52.00
3602;DHT22;1815;50.950;6.920;2024-03-08T14:07:15;13.70;52.20
3602;DHT22;1815;50.950;6.920;2024-03-08T14:09:41;13.70;52.20
3602;DHT22;1815;50.950;6.920;2024-03-08T14:12:09;13.60;52.00
3602;DHT22;1815;50.950;6.920;2024-03-08T14:14:35;13.60;52.10
3602;DHT22;1815;50.950;6.920;2024-03-08T14:17:01;13.70;52.30
3602;DHT22;1815;50.950;6.920;2024-03-08T14:19:28;13.60;52.40
3602;DHT22;1815;50.950;6.920;2024-03-08T14:21:53;13.70;52.20
3602;DHT22;1815;50.950;6.920;2024-03-08T14:24:20;13.60;52.40
3602;DHT22;1815;50.950;6.920;2024-03-08T14:26:45;13.50;52.50
3602;DHT22;1815;50.950;6.920;2024-03-08T14:29:15;13.60;52.50
3602;DHT22;1815;50.950;6.920;2024-03-08T14:31:41;13.60;52.40
3602;DHT22;1815;50.950;6.920;2024-03-08T14:34:08;13.60;52.70
3602;DHT22;1815;50.950;6.920;2024-03-08T14:36:34;13.50;52.50
3602;DHT22;1815;50.950;6.920;2024-03-08T14:39:00;13.50;52.70
3602;DHT22;1815;50.950;6.920;2024-03-08T14:41:26;13.60;53.00
3602;DHT22;1815;50.950;6.920;2024-03-08T14:43:52;13.60;52.90
3602;DHT22;1815;50.950;6.920;2024-03-08T14:46:19;13.70;53.00
3602;DHT22;1815;50.950;6.920;2024-03-08T14:48:46;13.60;53.10
3602;DHT22;1815;50.950;6.920;2024-03-08T14:51:13;13.70;53.20
3602;DHT22;1815;50.950;6.920;2024-03-08T14:53:43;13.70;53.30
3602;DHT22;1815;50.950;6.920;2024-03-08T14:56:11;13.70;53.40
3602;DHT22;1815;50.950;6.920;2024-03-08T14:58:43;13.60;53.60
3602;DHT22;1815;50.950;6.920;2024-03-08T15:01:10;13.70;53.80
3602;DHT22;1815;50.950;6.920;2024-03-08T15:03:36;13.70;53.80
3602;DHT22;1815;50.950;6.920;2024-03-08T15:06:05;13.80;53.70
3602;DHT22;1815;50.950;6.920;2024-03-08T15:08:35;13.70;53.70
3602;DHT22;1815;50.950;6.920;2024-03-08T15:11:01;13.70;53.90
3602;DHT22;1815;50.950;6.920;2024-03-08T15:13:26;13.70;54.00
3602;DHT22;1815;50.950;6.920;2024-03-08T15:16:10;13.70;54.00
3602;DHT22;1815;50.950;6.920;2024-03-08T15:18:44;13.80;54.00
3602;DHT22;1815;50.950;6.920;2024-03-08T15:21:14;13.80;53.90
3602;DHT22;1815;50.950;6.920;2024-03-08T15:23:46;13.70;53.60
3602;DHT22;1815;50.950;6.920;2024-03-08T15:26:16;13.80;53.80
3602;DHT22;1815;50.950;6.920;2024-03-08T15:28:45;13.70;53.80
3602;DHT22;1815;50.950;6.920;2024-03-08T15:31:13;13.70;53.50
3602;DHT22;1815;50.950;6.920;2024-03-08T15:33:41;13.70;53.60
3602;DHT22;1815;50.950;6.920;2024-03-08T15:36:24;13.60;53.60
3602;DHT22;1815;50.950;6.920;2024-03-08T15:38:54;13.70;53.80
3602;DHT22;1815;50.950;6.920;2024-03-08T15:41:20;13.70;53.90
3602;DHT22;1815;50.950;6.920;2024-03-08T15:43:46;13.80;53.70
3602;DHT22;1815;50.950;6.920;2024-03-08T15:46:13;13.70;53.50
3602;DHT22;1815;50.950;6.920;2024-03-08T15:48:40;13.60;53.70
3602;DHT22;1815;50.950;6.920;2024-03-08T15:51:08;13.60;53.60
3602;DHT22;1815;50.950;6.920;2024-03-08T15:53:38;13.50;53.90
3602;DHT22;1815;50.950;6.920;2024-03-08T15:56:04;13.40;53.10
3602;DHT22;1815;50.950;6.920;2024-03-08T15:58:37;13.40;53.60
3602;DHT22;1815;50.950;6.920;2024-03-08T16:01:04;13.40;53.80
3602;DHT22;1815;50.950;6.920;2024-03-08T16:03:32;13.40;54.00
3602;DHT22;1815;50.950;6.920;2024-03-08T16:05:58;13.40;53.70
3602;DHT22;1815;50.950;6.920;2024-03-08T16:08:24;13.40;53.90
3602;DHT22;1815;50.950;6.920;2024-03-08T16:10:52;13.30;54.10
3602;DHT22;1815;50.950;6.920;2024-03-08T16:13:24;13.30;54.20
3602;DHT22;1815;50.950;6.920;2024-03-08T16:15:54;13.30;54.10
3602;DHT22;1815;50.950;6.920;2024-03-08T16:18:26;13.20;54.10
3602;DHT22;1815;50.950;6.920;2024-03-08T16:20:53;13.20;54.10
3602;DHT22;1815;50.950;6.920;2024-03-08T16:23:20;13.20;54.00
3602;DHT22;1815;50.950;6.920;2024-03-08T16:25:46;13.10;54.20